createdAt,value
2023-04-05T00:01:26.926Z,1.15
2023-04-05T00:03:58.815Z,1.00
2023-04-05T00:06:31.261Z,1.50
2023-04-05T00:09:04.144Z,1.27
2023-04-05T00:11:34.109Z,1.15
2023-04-05T00:14:02.842Z,1.30
2023-04-05T00:16:31.100Z,1.25
2023-04-05T00:19:00.556Z,1.27
2023-04-05T00:21:28.854Z,1.23
2023-04-05T00:23:59.240Z,1.15
2023-04-05T00:26:28.115Z,1.42
2023-04-05T00:28:58.687Z,1.67
2023-04-05T00:31:26.926Z,1.83
2023-04-05T00:33:55.384Z,1.42
2023-04-05T00:36:23.511Z,1.40
2023-04-05T00:38:52.128Z,1.30
2023-04-05T00:41:21.048Z,1.40
2023-04-05T00:43:49.369Z,1.40
2023-04-05T00:46:17.802Z,1.33
2023-04-05T00:48:47.711Z,1.70
2023-04-05T00:51:15.794Z,1.30
2023-04-05T00:53:45.193Z,1.30
2023-04-05T00:56:14.654Z,1.77
2023-04-05T00:58:43.166Z,1.58
2023-04-05T01:01:18.212Z,1.45
2023-04-05T01:04:00.240Z,1.70
2023-04-05T01:06:41.850Z,1.45
2023-04-05T01:09:33.965Z,1.05
2023-04-05T01:12:07.037Z,1.33
2023-04-05T01:14:46.296Z,1.50
2023-04-05T01:17:14.788Z,1.17
2023-04-05T01:19:48.292Z,1.30
2023-04-05T01:22:40.783Z,1.60
2023-04-05T01:25:28.532Z,1.17
2023-04-05T01:27:59.463Z,1.63
2023-04-05T01:30:38.750Z,1.45
2023-04-05T01:33:27.088Z,1.23
2023-04-05T01:36:22.410Z,1.20
2023-04-05T01:38:51.424Z,1.45
2023-04-05T01:41:19.945Z,1.52
2023-04-05T01:43:48.992Z,1.60
2023-04-05T01:46:17.241Z,1.30
2023-04-05T01:48:45.732Z,1.38
2023-04-05T01:51:15.290Z,1.60
2023-04-05T01:53:43.349Z,1.45
2023-04-05T01:56:11.476Z,1.70
2023-04-05T01:58:39.558Z,2.15
2023-04-05T02:01:10.594Z,1.65
2023-04-05T02:03:38.899Z,1.90
2023-04-05T02:06:07.380Z,2.25
2023-04-05T02:08:35.603Z,2.10
2023-04-05T02:11:03.876Z,2.40
2023-04-05T02:13:32.263Z,2.08
2023-04-05T02:16:00.300Z,2.05
2023-04-05T02:18:32.445Z,1.95
2023-04-05T02:21:05.668Z,2.20
2023-04-05T02:23:34.463Z,1.80
2023-04-05T02:26:02.992Z,1.83
2023-04-05T02:28:31.851Z,1.90
2023-04-05T02:31:00.496Z,2.75
2023-04-05T02:33:30.011Z,2.50
2023-04-05T02:35:58.148Z,2.40
2023-04-05T02:38:26.379Z,2.63
2023-04-05T02:40:55.612Z,2.63
2023-04-05T02:43:23.650Z,2.90
2023-04-05T02:45:52.601Z,2.70
2023-04-05T02:48:21.242Z,3.10
2023-04-05T02:50:53.230Z,2.85
2023-04-05T02:53:21.496Z,2.97
2023-04-05T02:55:58.148Z,2.30
2023-04-05T02:58:26.317Z,2.10
2023-04-05T03:00:56.493Z,2.00
2023-04-05T03:03:32.393Z,1.90
2023-04-05T03:06:07.443Z,2.60
2023-04-05T03:08:46.927Z,2.08
2023-04-05T03:11:17.863Z,2.33
2023-04-05T03:13:50.726Z,2.22
2023-04-05T03:16:57.788Z,2.42
2023-04-05T03:19:35.833Z,2.17
2023-04-05T03:22:17.523Z,2.38
2023-04-05T03:24:45.583Z,2.55
2023-04-05T03:27:15.945Z,2.10
2023-04-05T03:30:02.851Z,2.15
2023-04-05T03:32:33.777Z,2.10
2023-04-05T03:35:10.963Z,2.28
2023-04-05T03:37:41.633Z,2.60
2023-04-05T03:40:11.280Z,2.33
2023-04-05T03:42:39.370Z,2.10
2023-04-05T03:45:08.927Z,2.45
2023-04-05T03:47:37.847Z,2.55
2023-04-05T03:50:09.036Z,2.13
2023-04-05T03:52:36.991Z,2.80
2023-04-05T03:55:07.263Z,2.85
2023-04-05T03:57:39.166Z,3.03
2023-04-05T04:00:21.319Z,2.72
2023-04-05T04:03:28.814Z,2.60
2023-04-05T04:05:57.438Z,2.95
2023-04-05T04:08:26.625Z,2.90
2023-04-05T04:10:55.248Z,3.05
2023-04-05T04:13:26.626Z,3.40
2023-04-05T04:16:02.621Z,3.10
2023-04-05T04:18:49.442Z,2.90
2023-04-05T04:21:22.520Z,2.70
2023-04-05T04:24:10.892Z,3.30
2023-04-05T04:27:07.065Z,2.88
2023-04-05T04:30:04.805Z,3.13
2023-04-05T04:32:58.985Z,2.95
2023-04-05T04:35:56.567Z,2.92
2023-04-05T04:38:35.093Z,3.10
2023-04-05T04:41:27.085Z,2.70
2023-04-05T04:44:07.103Z,2.58
2023-04-05T04:46:44.660Z,2.90
2023-04-05T04:49:36.425Z,2.78
2023-04-05T04:52:04.409Z,3.15
2023-04-05T04:54:34.421Z,2.85
2023-04-05T04:57:02.801Z,2.83
2023-04-05T04:59:31.307Z,3.00
2023-04-05T05:01:59.327Z,3.30
2023-04-05T05:04:27.482Z,3.10
2023-04-05T05:06:55.537Z,3.15
2023-04-05T05:09:23.751Z,2.88
2023-04-05T05:11:57.229Z,3.33
2023-04-05T05:14:25.180Z,3.20
2023-04-05T05:16:54.958Z,3.00
2023-04-05T05:19:23.258Z,3.47
2023-04-05T05:21:54.847Z,2.97
2023-04-05T05:24:23.067Z,2.95
2023-04-05T05:26:51.584Z,2.80
2023-04-05T05:29:21.029Z,3.05
2023-04-05T05:31:50.676Z,3.08
2023-04-05T05:34:19.854Z,3.05
2023-04-05T05:36:57.856Z,4.25
2023-04-05T05:39:25.925Z,3.30
2023-04-05T05:41:54.267Z,2.78
2023-04-05T05:44:22.151Z,3.45
2023-04-05T05:46:50.033Z,2.88
2023-04-05T05:49:18.240Z,3.25
2023-04-05T05:51:46.772Z,3.30
2023-04-05T05:54:14.803Z,3.47
2023-04-05T05:56:43.143Z,2.80
2023-04-05T05:59:12.335Z,3.08
2023-04-05T06:01:43.029Z,2.72
2023-04-05T06:04:11.036Z,3.47
2023-04-05T06:06:39.267Z,3.85
2023-04-05T06:09:07.297Z,3.45
2023-04-05T06:11:37.111Z,3.40
2023-04-05T06:14:08.944Z,3.92
2023-04-05T06:16:36.863Z,3.63
2023-04-05T06:19:04.973Z,3.20
2023-04-05T06:21:32.988Z,3.83
2023-04-05T06:24:01.372Z,3.22
2023-04-05T06:26:30.298Z,3.65
2023-04-05T06:28:58.380Z,2.85
2023-04-05T06:31:35.138Z,3.55
2023-04-05T06:34:03.834Z,2.70
2023-04-05T06:36:34.383Z,2.72
2023-04-05T06:39:02.770Z,2.85
2023-04-05T06:41:30.948Z,2.90
2023-04-05T06:43:58.918Z,3.08
2023-04-05T06:46:26.906Z,3.17
2023-04-05T06:48:54.846Z,2.97
2023-04-05T06:51:22.998Z,2.88
2023-04-05T06:53:50.965Z,2.70
2023-04-05T06:56:19.375Z,2.67
2023-04-05T06:58:47.655Z,2.92
2023-04-05T07:01:15.600Z,2.50
2023-04-05T07:03:44.122Z,2.58
2023-04-05T07:06:12.221Z,2.58
2023-04-05T07:08:40.219Z,2.97
2023-04-05T07:11:08.083Z,2.20
2023-04-05T07:13:37.035Z,2.55
2023-04-05T07:16:05.137Z,2.78
2023-04-05T07:18:33.256Z,2.47
2023-04-05T07:21:02.169Z,2.20
2023-04-05T07:23:30.776Z,3.08
2023-04-05T07:26:05.030Z,2.70
2023-04-05T07:28:35.803Z,2.60
2023-04-05T07:31:05.545Z,2.47
2023-04-05T07:33:34.471Z,2.38
2023-04-05T07:36:03.755Z,3.13
2023-04-05T07:38:31.769Z,2.35
2023-04-05T07:40:59.948Z,2.72
2023-04-05T07:43:28.140Z,2.70
2023-04-05T07:46:03.387Z,3.15
2023-04-05T07:48:31.629Z,2.50
2023-04-05T07:51:05.937Z,2.50
2023-04-05T07:53:34.822Z,2.50
2023-04-05T07:56:10.496Z,2.50
2023-04-05T07:58:41.496Z,2.40
2023-04-05T08:01:11.305Z,2.35
2023-04-05T08:03:40.438Z,3.47
2023-04-05T08:06:19.386Z,2.35
2023-04-05T08:08:48.112Z,2.20
2023-04-05T08:11:16.127Z,2.53
2023-04-05T08:13:44.098Z,2.65
2023-04-05T08:16:12.509Z,2.42
2023-04-05T08:18:40.684Z,2.80
2023-04-05T08:21:08.568Z,2.20
2023-04-05T08:23:36.645Z,2.20
2023-04-05T08:26:04.605Z,2.17
2023-04-05T08:28:32.445Z,2.00
2023-04-05T08:31:00.600Z,2.00
2023-04-05T08:33:31.354Z,1.65
2023-04-05T08:36:04.025Z,1.80
2023-04-05T08:38:32.411Z,1.60
2023-04-05T08:41:09.844Z,1.60
2023-04-05T08:44:00.387Z,2.20
2023-04-05T08:46:32.347Z,1.98
2023-04-05T08:49:00.860Z,1.50
2023-04-05T08:51:29.185Z,1.90
2023-04-05T08:53:57.246Z,1.50
2023-04-05T08:56:35.421Z,1.45
2023-04-05T08:59:08.760Z,1.92
2023-04-05T09:01:44.266Z,1.77
2023-04-05T09:04:25.200Z,1.50
2023-04-05T09:06:53.848Z,1.60
2023-04-05T09:09:22.586Z,1.80
2023-04-05T09:11:51.551Z,1.63
2023-04-05T09:14:20.370Z,1.77
2023-04-05T09:16:48.253Z,1.60
2023-04-05T09:19:16.440Z,1.83
2023-04-05T09:22:06.434Z,1.63
2023-04-05T09:24:43.591Z,1.50
2023-04-05T09:27:17.010Z,1.27
2023-04-05T09:29:49.033Z,1.08
2023-04-05T09:32:21.654Z,1.15
2023-04-05T09:34:51.758Z,1.63
2023-04-05T09:37:28.031Z,1.10
2023-04-05T09:40:04.578Z,1.10
2023-04-05T09:42:45.068Z,1.30
2023-04-05T09:45:13.875Z,1.30
2023-04-05T09:47:57.109Z,1.10
2023-04-05T09:50:25.323Z,1.17
2023-04-05T09:53:08.144Z,0.95
2023-04-05T09:55:36.246Z,0.90
2023-04-05T09:58:04.380Z,1.10
2023-04-05T10:00:32.896Z,1.20
2023-04-05T10:03:01.508Z,1.17
2023-04-05T10:05:30.296Z,0.88
2023-04-05T10:07:58.369Z,1.17
2023-04-05T10:10:26.467Z,0.80
2023-04-05T10:12:55.086Z,0.88
2023-04-05T10:15:25.654Z,1.13
2023-04-05T10:18:01.023Z,1.50
2023-04-05T10:20:29.641Z,1.27
2023-04-05T10:23:12.663Z,1.30
2023-04-05T10:25:53.685Z,1.48
2023-04-05T10:28:35.413Z,1.45
2023-04-05T10:33:52.540Z,1.48
2023-04-05T10:36:40.317Z,1.52
2023-04-05T10:39:20.960Z,1.50
2023-04-05T10:41:53.487Z,1.10
2023-04-05T10:44:26.220Z,1.23
2023-04-05T10:46:55.810Z,1.25
2023-04-05T10:49:44.238Z,1.27
2023-04-05T10:52:12.475Z,1.30
2023-04-05T10:54:40.607Z,1.20
2023-04-05T10:57:10.494Z,1.30
2023-04-05T10:59:44.884Z,1.60
2023-04-05T11:02:13.669Z,1.30
2023-04-05T11:04:42.764Z,1.52
2023-04-05T11:07:19.009Z,1.38
2023-04-05T11:09:56.847Z,1.08
2023-04-05T11:12:46.756Z,1.65
2023-04-05T11:15:30.226Z,1.20
2023-04-05T11:18:11.812Z,1.20
2023-04-05T11:20:56.806Z,1.80
2023-04-05T11:23:25.837Z,1.17
2023-04-05T11:25:58.013Z,1.20
2023-04-05T11:28:37.905Z,1.77
2023-04-05T11:31:20.408Z,1.80
2023-04-05T11:33:55.751Z,1.00
2023-04-05T11:36:33.963Z,1.35
2023-04-05T11:39:21.521Z,1.55
2023-04-05T11:42:00.381Z,0.88
2023-04-05T11:44:48.761Z,1.20
2023-04-05T11:47:23.501Z,1.30
2023-04-05T11:49:52.464Z,1.20
2023-04-05T11:52:22.207Z,1.17
2023-04-05T11:54:50.290Z,1.58
2023-04-05T11:57:23.344Z,1.65
2023-04-05T11:59:52.380Z,1.33
2023-04-05T12:02:21.471Z,1.10
2023-04-05T12:04:57.571Z,1.10
2023-04-05T12:07:29.782Z,1.33
2023-04-05T12:10:10.122Z,1.02
2023-04-05T12:12:47.960Z,1.10
2023-04-05T12:15:21.976Z,1.00
2023-04-05T12:17:52.152Z,1.33
2023-04-05T12:20:25.366Z,1.37
2023-04-05T12:22:57.711Z,1.42
2023-04-05T12:25:26.248Z,1.40
2023-04-05T12:27:54.297Z,1.23
2023-04-05T12:30:23.974Z,1.48
2023-04-05T12:32:53.782Z,1.10
2023-04-05T12:35:32.581Z,0.98
2023-04-05T12:38:05.769Z,1.23
2023-04-05T12:40:35.844Z,1.33
2023-04-05T12:43:08.377Z,0.90
2023-04-05T12:45:40.719Z,1.23
2023-04-05T12:48:20.872Z,0.90
2023-04-05T12:50:52.189Z,0.93
2023-04-05T12:53:22.164Z,1.35
2023-04-05T12:55:57.271Z,1.40
2023-04-05T12:58:39.206Z,1.42
2023-04-05T13:01:07.800Z,1.75
2023-04-05T13:03:35.853Z,1.10
2023-04-05T13:06:03.914Z,1.40
2023-04-05T13:08:32.108Z,1.45
2023-04-05T13:11:00.231Z,1.10
2023-04-05T13:13:29.048Z,1.08
2023-04-05T13:15:57.231Z,1.30
2023-04-05T13:18:25.176Z,1.13
2023-04-05T13:20:53.158Z,1.10
2023-04-05T13:23:21.170Z,1.10
2023-04-05T13:25:48.894Z,1.15
2023-04-05T13:28:17.081Z,0.95
2023-04-05T13:30:45.478Z,0.85
2023-04-05T13:33:13.770Z,1.17
2023-04-05T13:35:42.908Z,1.08
2023-04-05T13:38:11.416Z,0.90
2023-04-05T13:40:39.646Z,1.00
2023-04-05T13:43:07.590Z,1.40
2023-04-05T13:45:35.651Z,1.15
2023-04-05T13:48:03.766Z,1.00
2023-04-05T13:50:31.664Z,1.15
2023-04-05T13:53:01.305Z,0.95
2023-04-05T13:55:29.281Z,1.30
2023-04-05T13:57:57.220Z,1.30
2023-04-05T14:00:25.444Z,1.17
2023-04-05T14:02:53.800Z,1.30
2023-04-05T14:05:22.217Z,1.17
2023-04-05T14:07:50.602Z,0.95
2023-04-05T14:10:21.825Z,1.35
2023-04-05T14:12:49.981Z,1.52
2023-04-05T14:15:18.215Z,1.70
2023-04-05T14:17:46.303Z,1.77
2023-04-05T14:20:14.452Z,1.40
2023-04-05T14:22:42.685Z,1.13
2023-04-05T14:25:11.042Z,1.25
2023-04-05T14:27:42.735Z,1.30
2023-04-05T14:30:11.601Z,1.40
2023-04-05T14:32:40.456Z,0.95
2023-04-05T14:35:09.432Z,1.65
2023-04-05T14:37:39.813Z,1.10
2023-04-05T14:42:47.559Z,1.20
2023-04-05T14:45:17.129Z,1.00
2023-04-05T14:47:45.127Z,1.60
2023-04-05T14:50:13.234Z,1.23
2023-04-05T14:52:41.428Z,1.05
2023-04-05T14:55:09.860Z,1.30
2023-04-05T14:57:37.946Z,1.10
2023-04-05T15:00:07.542Z,1.92
2023-04-05T15:02:36.511Z,1.27
2023-04-05T15:05:06.156Z,1.42
2023-04-05T15:07:34.412Z,1.53
2023-04-05T15:10:02.535Z,1.50
2023-04-05T15:12:31.053Z,0.90
2023-04-05T15:14:59.363Z,1.20
2023-04-05T15:17:27.378Z,1.25
2023-04-05T15:19:55.492Z,1.08
2023-04-05T15:22:24.701Z,1.10
2023-04-05T15:24:52.594Z,1.25
2023-04-05T15:27:21.499Z,1.10
2023-04-05T15:29:49.581Z,1.38
2023-04-05T15:32:17.598Z,1.40
2023-04-05T15:34:46.553Z,0.98
2023-04-05T15:37:14.920Z,1.27
2023-04-05T15:39:42.929Z,1.50
2023-04-05T15:42:10.980Z,1.80
2023-04-05T15:44:39.212Z,0.90
2023-04-05T15:47:11.195Z,1.13
2023-04-05T15:49:39.208Z,1.63
2023-04-05T15:52:07.283Z,1.20
2023-04-05T15:54:35.550Z,1.30
2023-04-05T15:57:03.629Z,1.08
2023-04-05T15:59:31.747Z,1.20
2023-04-05T16:01:59.860Z,1.05
2023-04-05T16:04:28.328Z,1.02
2023-04-05T16:06:56.602Z,1.20
2023-04-05T16:09:27.795Z,0.95
2023-04-05T16:14:24.422Z,1.10
2023-04-05T16:16:54.273Z,1.10
2023-04-05T16:19:23.687Z,1.05
2023-04-05T16:21:53.151Z,1.17
2023-04-05T16:24:21.486Z,1.10
2023-04-05T16:26:49.627Z,0.95
2023-04-05T16:29:17.999Z,1.55
2023-04-05T16:31:47.725Z,1.10
2023-04-05T16:34:16.481Z,1.13
2023-04-05T16:36:44.768Z,1.30
2023-04-05T16:39:13.038Z,1.05
2023-04-05T16:41:41.081Z,1.30
2023-04-05T16:44:09.540Z,0.73
2023-04-05T16:46:37.761Z,1.30
2023-04-05T16:49:06.179Z,1.52
2023-04-05T16:51:36.473Z,1.10
2023-04-05T16:54:04.940Z,1.00
2023-04-05T16:56:33.027Z,1.10
2023-04-05T16:59:01.700Z,1.30
2023-04-05T17:01:31.768Z,1.05
2023-04-05T17:04:00.897Z,1.00
2023-04-05T17:06:29.367Z,1.20
2023-04-05T17:08:57.610Z,1.25
2023-04-05T17:11:26.396Z,1.13
2023-04-05T17:13:54.574Z,1.05
2023-04-05T17:16:23.800Z,1.55
2023-04-05T17:18:51.922Z,1.25
2023-04-05T17:21:20.156Z,0.90
2023-04-05T17:23:48.191Z,0.93
2023-04-05T17:26:16.070Z,1.20
2023-04-05T17:28:44.151Z,1.10
2023-04-05T17:31:12.234Z,1.30
2023-04-05T17:33:41.123Z,1.48
2023-04-05T17:36:09.135Z,1.10
2023-04-05T17:38:38.169Z,1.38
2023-04-05T17:41:06.239Z,1.20
2023-04-05T17:43:34.325Z,0.95
2023-04-05T17:46:03.546Z,1.02
2023-04-05T17:48:33.237Z,1.00
2023-04-05T17:51:06.883Z,1.00
2023-04-05T17:53:35.761Z,1.00
2023-04-05T17:56:04.044Z,1.23
2023-04-05T17:58:32.845Z,1.05
2023-04-05T18:01:00.880Z,1.30
2023-04-05T18:03:29.701Z,1.17
2023-04-05T18:05:57.998Z,1.02
2023-04-05T18:08:26.818Z,0.90
2023-04-05T18:10:58.607Z,1.10
2023-04-05T18:16:00.961Z,1.10
2023-04-05T18:18:29.277Z,1.50
2023-04-05T18:21:05.512Z,1.23
2023-04-05T18:23:33.585Z,1.35
2023-04-05T18:26:07.626Z,1.40
2023-04-05T18:28:36.054Z,2.05
2023-04-05T18:31:03.973Z,1.80
2023-04-05T18:33:31.998Z,1.58
2023-04-05T18:36:00.249Z,1.30
2023-04-05T18:38:28.273Z,1.65
2023-04-05T18:41:07.229Z,1.52
2023-04-05T18:43:35.325Z,1.60
2023-04-05T18:46:03.631Z,1.20
2023-04-05T18:48:34.456Z,1.50
2023-04-05T18:51:02.640Z,1.50
2023-04-05T18:53:30.898Z,1.48
2023-04-05T18:55:59.218Z,1.88
2023-04-05T18:58:27.316Z,1.67
2023-04-05T19:00:55.651Z,1.30
2023-04-05T19:03:23.875Z,1.20
2023-04-05T19:05:52.818Z,1.20
2023-04-05T19:08:21.030Z,1.25
2023-04-05T19:10:49.023Z,1.33
2023-04-05T19:13:17.179Z,1.65
2023-04-05T19:15:46.479Z,1.40
2023-04-05T19:18:14.705Z,1.25
2023-04-05T19:20:42.972Z,1.90
2023-04-05T19:23:11.074Z,1.17
2023-04-05T19:25:39.530Z,1.20
2023-04-05T19:28:07.888Z,1.30
2023-04-05T19:30:35.991Z,1.42
2023-04-05T19:33:04.462Z,1.20
2023-04-05T19:35:32.821Z,1.77
2023-04-05T19:38:01.117Z,1.40
2023-04-05T19:40:29.321Z,1.50
2023-04-05T19:42:59.356Z,2.33
2023-04-05T19:45:29.868Z,1.35
2023-04-05T19:47:59.723Z,1.42
2023-04-05T19:50:47.709Z,1.38
2023-04-05T19:53:41.934Z,1.00
2023-04-05T19:56:22.492Z,1.08
2023-04-05T19:59:02.526Z,1.35
2023-04-05T20:01:51.399Z,1.33
2023-04-05T20:04:22.661Z,1.38
2023-04-05T20:06:55.575Z,2.63
2023-04-05T20:09:29.380Z,1.60
2023-04-05T20:12:03.026Z,1.30
2023-04-05T20:14:37.834Z,1.58
2023-04-05T20:17:06.751Z,2.15
2023-04-05T20:19:35.221Z,1.52
2023-04-05T20:22:06.386Z,1.25
2023-04-05T20:24:35.243Z,1.40
2023-04-05T20:27:04.308Z,1.55
2023-04-05T20:29:32.805Z,1.70
2023-04-05T20:32:02.439Z,1.90
2023-04-05T20:34:33.440Z,2.17
2023-04-05T20:37:05.419Z,1.90
2023-04-05T20:39:34.147Z,2.10
2023-04-05T20:42:04.271Z,1.92
2023-04-05T20:44:32.268Z,1.83
2023-04-05T20:47:01.594Z,1.80
2023-04-05T20:49:30.278Z,1.73
2023-04-05T20:51:58.644Z,1.75
2023-04-05T20:54:26.948Z,1.83
2023-04-05T20:56:55.143Z,1.60
2023-04-05T20:59:23.467Z,1.85
2023-04-05T21:01:51.619Z,2.20
2023-04-05T21:04:19.636Z,1.65
2023-04-05T21:06:47.985Z,1.58
2023-04-05T21:09:16.345Z,1.60
2023-04-05T21:11:44.818Z,1.95
2023-04-05T21:14:12.882Z,1.58
2023-04-05T21:16:41.119Z,1.63
2023-04-05T21:19:09.879Z,1.88
2023-04-05T21:21:38.151Z,1.83
2023-04-05T21:24:06.789Z,1.90
2023-04-05T21:26:35.031Z,1.80
2023-04-05T21:29:03.379Z,1.80
2023-04-05T21:31:31.617Z,1.85
2023-04-05T21:33:59.845Z,1.52
2023-04-05T21:36:27.833Z,1.70
2023-04-05T21:38:56.296Z,1.80
2023-04-05T21:41:24.604Z,1.85
2023-04-05T21:43:52.645Z,1.50
2023-04-05T21:46:20.947Z,1.52
2023-04-05T21:48:48.899Z,1.48
2023-04-05T21:51:18.144Z,1.80
2023-04-05T21:53:46.509Z,2.55
2023-04-05T21:56:15.678Z,2.20
2023-04-05T21:58:44.130Z,1.70
2023-04-05T22:01:12.635Z,1.70
2023-04-05T22:03:41.263Z,1.92
2023-04-05T22:06:09.480Z,1.75
2023-04-05T22:08:37.796Z,1.65
2023-04-05T22:11:06.773Z,2.22
2023-04-05T22:13:34.602Z,1.70
2023-04-05T22:16:02.726Z,2.00
2023-04-05T22:18:30.786Z,1.60
2023-04-05T22:20:58.990Z,1.77
2023-04-05T22:23:26.962Z,1.85
2023-04-05T22:25:54.977Z,2.22
2023-04-05T22:28:23.364Z,2.17
2023-04-05T22:30:51.702Z,1.63
2023-04-05T22:33:19.916Z,2.08
2023-04-05T22:35:48.299Z,2.00
2023-04-05T22:38:16.724Z,1.92
2023-04-05T22:40:45.570Z,2.40
2023-04-05T22:43:14.133Z,3.65
2023-04-05T22:45:42.385Z,5.20
2023-04-05T22:48:11.706Z,6.43
2023-04-05T22:50:39.813Z,6.65
2023-04-05T22:53:07.805Z,5.82
2023-04-05T22:55:37.637Z,3.50
2023-04-05T22:58:06.215Z,2.40
2023-04-05T23:00:34.565Z,2.65
2023-04-05T23:03:02.760Z,2.53
2023-04-05T23:05:30.991Z,2.35
2023-04-05T23:07:59.465Z,2.22
2023-04-05T23:10:27.693Z,2.00
2023-04-05T23:12:56.711Z,2.65
2023-04-05T23:15:24.826Z,2.50
2023-04-05T23:17:53.092Z,2.13
2023-04-05T23:20:21.357Z,2.28
2023-04-05T23:22:49.471Z,2.35
2023-04-05T23:25:17.466Z,2.90
2023-04-05T23:27:45.939Z,2.20
2023-04-05T23:30:14.177Z,1.83
2023-04-05T23:32:42.322Z,2.42
2023-04-05T23:35:10.775Z,2.50
2023-04-05T23:37:41.681Z,3.15
2023-04-05T23:40:10.324Z,3.20
2023-04-05T23:42:38.668Z,2.92
2023-04-05T23:45:10.760Z,2.30
2023-04-05T23:47:41.799Z,2.88
2023-04-05T23:50:10.636Z,2.75
2023-04-05T23:52:38.561Z,2.50
2023-04-05T23:55:07.327Z,2.25
2023-04-05T23:57:35.888Z,2.67
